sensor_id;sensor_type;location;lat;lon;timestamp;P1;durP1;ratioP1;P2;durP2;ratioP2
17763;SDS011;22245;52.832;13.816;2022-11-20T00:00:42;8.77;;;5.33;;
17763;SDS011;22245;52.832;13.816;2022-11-20T00:04:04;9.90;;;5.90;;
17763;SDS011;22245;52.832;13.816;2022-11-20T00:07:26;8.47;;;5.73;;
17763;SDS011;22245;52.832;13.816;2022-11-20T00:10:49;9.23;;;5.97;;
17763;SDS011;22245;52.832;13.816;2022-11-20T00:14:11;8.57;;;5.63;;
17763;SDS011;22245;52.832;13.816;2022-11-20T00:17:33;12.17;;;6.57;;
17763;SDS011;22245;52.832;13.816;2022-11-20T00:20:59;10.00;;;5.93;;
17763;SDS011;22245;52.832;13.816;2022-11-20T00:24:22;9.73;;;5.90;;
17763;SDS011;22245;52.832;13.816;2022-11-20T00:27:45;9.07;;;5.77;;
17763;SDS011;22245;52.832;13.816;2022-11-20T00:31:07;9.70;;;6.03;;
17763;SDS011;22245;52.832;13.816;2022-11-20T00:34:30;11.07;;;6.57;;
17763;SDS011;22245;52.832;13.816;2022-11-20T00:37:52;9.13;;;6.37;;
17763;SDS011;22245;52.832;13.816;2022-11-20T00:41:14;9.83;;;6.40;;
17763;SDS011;22245;52.832;13.816;2022-11-20T00:44:38;10.60;;;6.40;;
17763;SDS011;22245;52.832;13.816;2022-11-20T00:47:59;9.93;;;5.83;;
17763;SDS011;22245;52.832;13.816;2022-11-20T00:51:22;10.67;;;6.73;;
17763;SDS011;22245;52.832;13.816;2022-11-20T00:54:45;13.03;;;7.33;;
17763;SDS011;22245;52.832;13.816;2022-11-20T00:58:07;10.80;;;6.70;;
17763;SDS011;22245;52.832;13.816;2022-11-20T01:01:35;9.93;;;6.90;;
17763;SDS011;22245;52.832;13.816;2022-11-20T01:04:57;9.63;;;6.57;;
17763;SDS011;22245;52.832;13.816;2022-11-20T01:08:19;11.70;;;7.50;;
17763;SDS011;22245;52.832;13.816;2022-11-20T01:11:41;12.70;;;7.17;;
17763;SDS011;22245;52.832;13.816;2022-11-20T01:15:04;13.27;;;8.40;;
17763;SDS011;22245;52.832;13.816;2022-11-20T01:18:27;12.80;;;7.77;;
17763;SDS011;22245;52.832;13.816;2022-11-20T01:21:51;16.63;;;8.77;;
17763;SDS011;22245;52.832;13.816;2022-11-20T01:25:14;13.23;;;8.20;;
17763;SDS011;22245;52.832;13.816;2022-11-20T01:28:36;15.40;;;9.37;;
17763;SDS011;22245;52.832;13.816;2022-11-20T01:31:58;14.40;;;8.67;;
17763;SDS011;22245;52.832;13.816;2022-11-20T01:35:21;14.37;;;8.67;;
17763;SDS011;22245;52.832;13.816;2022-11-20T01:38:43;13.80;;;8.60;;
17763;SDS011;22245;52.832;13.816;2022-11-20T01:42:05;19.13;;;9.53;;
17763;SDS011;22245;52.832;13.816;2022-11-20T01:49:27;23.77;;;10.60;;
17763;SDS011;22245;52.832;13.816;2022-11-20T01:52:57;17.67;;;9.47;;
17763;SDS011;22245;52.832;13.816;2022-11-20T01:56:22;15.63;;;9.73;;
17763;SDS011;22245;52.832;13.816;2022-11-20T01:59:47;16.43;;;9.37;;
17763;SDS011;22245;52.832;13.816;2022-11-20T02:03:14;17.53;;;9.60;;
17763;SDS011;22245;52.832;13.816;2022-11-20T02:06:39;18.63;;;9.23;;
17763;SDS011;22245;52.832;13.816;2022-11-20T02:10:05;16.17;;;9.83;;
17763;SDS011;22245;52.832;13.816;2022-11-20T02:13:27;17.80;;;10.33;;
17763;SDS011;22245;52.832;13.816;2022-11-20T02:17:05;14.67;;;9.33;;
17763;SDS011;22245;52.832;13.816;2022-11-20T02:20:27;17.60;;;9.60;;
17763;SDS011;22245;52.832;13.816;2022-11-20T02:27:31;18.33;;;9.60;;
17763;SDS011;22245;52.832;13.816;2022-11-20T02:30:52;15.47;;;8.90;;
17763;SDS011;22245;52.832;13.816;2022-11-20T02:34:14;16.70;;;9.17;;
17763;SDS011;22245;52.832;13.816;2022-11-20T02:37:37;16.43;;;9.63;;
17763;SDS011;22245;52.832;13.816;2022-11-20T02:41:02;15.50;;;8.90;;
17763;SDS011;22245;52.832;13.816;2022-11-20T02:44:24;16.07;;;9.30;;
17763;SDS011;22245;52.832;13.816;2022-11-20T02:47:46;15.77;;;9.37;;
17763;SDS011;22245;52.832;13.816;2022-11-20T02:51:08;17.63;;;9.63;;
17763;SDS011;22245;52.832;13.816;2022-11-20T02:54:29;16.43;;;9.73;;
17763;SDS011;22245;52.832;13.816;2022-11-20T02:57:53;15.87;;;9.47;;
17763;SDS011;22245;52.832;13.816;2022-11-20T03:01:15;18.83;;;9.93;;
17763;SDS011;22245;52.832;13.816;2022-11-20T03:04:36;16.70;;;9.60;;
17763;SDS011;22245;52.832;13.816;2022-11-20T03:07:58;19.93;;;10.30;;
17763;SDS011;22245;52.832;13.816;2022-11-20T03:11:20;20.43;;;10.20;;
17763;SDS011;22245;52.832;13.816;2022-11-20T03:14:43;16.97;;;9.73;;
17763;SDS011;22245;52.832;13.816;2022-11-20T03:18:11;18.13;;;9.70;;
17763;SDS011;22245;52.832;13.816;2022-11-20T03:21:33;17.83;;;9.63;;
17763;SDS011;22245;52.832;13.816;2022-11-20T03:24:55;18.93;;;10.30;;
17763;SDS011;22245;52.832;13.816;2022-11-20T03:28:17;18.93;;;10.23;;
17763;SDS011;22245;52.832;13.816;2022-11-20T03:31:41;21.43;;;10.77;;
17763;SDS011;22245;52.832;13.816;2022-11-20T03:35:03;20.47;;;10.80;;
17763;SDS011;22245;52.832;13.816;2022-11-20T03:38:25;21.63;;;11.43;;
17763;SDS011;22245;52.832;13.816;2022-11-20T03:41:46;21.53;;;11.63;;
17763;SDS011;22245;52.832;13.816;2022-11-20T03:45:08;21.17;;;10.60;;
17763;SDS011;22245;52.832;13.816;2022-11-20T03:51:54;21.63;;;11.70;;
17763;SDS011;22245;52.832;13.816;2022-11-20T03:55:16;22.60;;;10.87;;
17763;SDS011;22245;52.832;13.816;2022-11-20T03:58:38;20.37;;;11.50;;
17763;SDS011;22245;52.832;13.816;2022-11-20T04:02:00;22.27;;;11.07;;
17763;SDS011;22245;52.832;13.816;2022-11-20T04:05:24;20.40;;;10.63;;
17763;SDS011;22245;52.832;13.816;2022-11-20T04:08:45;18.53;;;10.50;;
17763;SDS011;22245;52.832;13.816;2022-11-20T04:12:13;19.67;;;10.97;;
17763;SDS011;22245;52.832;13.816;2022-11-20T04:15:35;19.37;;;10.40;;
17763;SDS011;22245;52.832;13.816;2022-11-20T04:18:58;19.63;;;10.30;;
17763;SDS011;22245;52.832;13.816;2022-11-20T04:22:26;23.63;;;10.77;;
17763;SDS011;22245;52.832;13.816;2022-11-20T04:25:48;18.70;;;10.50;;
17763;SDS011;22245;52.832;13.816;2022-11-20T04:29:10;24.00;;;11.87;;
17763;SDS011;22245;52.832;13.816;2022-11-20T04:32:32;18.90;;;11.03;;
17763;SDS011;22245;52.832;13.816;2022-11-20T04:35:54;21.50;;;10.60;;
17763;SDS011;22245;52.832;13.816;2022-11-20T04:39:17;20.73;;;11.03;;
17763;SDS011;22245;52.832;13.816;2022-11-20T04:42:39;15.90;;;9.57;;
17763;SDS011;22245;52.832;13.816;2022-11-20T04:46:01;18.37;;;9.90;;
17763;SDS011;22245;52.832;13.816;2022-11-20T04:49:23;19.47;;;11.23;;
17763;SDS011;22245;52.832;13.816;2022-11-20T04:52:44;21.10;;;10.60;;
17763;SDS011;22245;52.832;13.816;2022-11-20T04:56:08;20.30;;;11.60;;
17763;SDS011;22245;52.832;13.816;2022-11-20T04:59:31;22.30;;;11.30;;
17763;SDS011;22245;52.832;13.816;2022-11-20T05:02:53;21.50;;;11.47;;
17763;SDS011;22245;52.832;13.816;2022-11-20T05:06:16;19.67;;;10.87;;
17763;SDS011;22245;52.832;13.816;2022-11-20T05:09:40;19.83;;;10.90;;
17763;SDS011;22245;52.832;13.816;2022-11-20T05:13:02;21.53;;;11.67;;
17763;SDS011;22245;52.832;13.816;2022-11-20T05:16:24;21.20;;;11.63;;
17763;SDS011;22245;52.832;13.816;2022-11-20T05:19:46;19.23;;;11.20;;
17763;SDS011;22245;52.832;13.816;2022-11-20T05:23:11;20.87;;;11.30;;
17763;SDS011;22245;52.832;13.816;2022-11-20T05:26:33;19.23;;;10.60;;
17763;SDS011;22245;52.832;13.816;2022-11-20T05:29:57;25.10;;;12.47;;
17763;SDS011;22245;52.832;13.816;2022-11-20T05:33:18;24.30;;;12.00;;
17763;SDS011;22245;52.832;13.816;2022-11-20T05:36:40;22.17;;;12.00;;
17763;SDS011;22245;52.832;13.816;2022-11-20T05:40:03;22.20;;;11.57;;
17763;SDS011;22245;52.832;13.816;2022-11-20T05:43:26;22.43;;;11.90;;
17763;SDS011;22245;52.832;13.816;2022-11-20T05:46:49;23.30;;;11.90;;
17763;SDS011;22245;52.832;13.816;2022-11-20T05:53:33;21.03;;;10.83;;
17763;SDS011;22245;52.832;13.816;2022-11-20T05:56:56;22.50;;;11.57;;
17763;SDS011;22245;52.832;13.816;2022-11-20T06:00:18;24.63;;;12.53;;
17763;SDS011;22245;52.832;13.816;2022-11-20T06:03:41;25.57;;;12.50;;
17763;SDS011;22245;52.832;13.816;2022-11-20T06:07:06;24.10;;;12.13;;
17763;SDS011;22245;52.832;13.816;2022-11-20T06:10:28;26.60;;;13.37;;
17763;SDS011;22245;52.832;13.816;2022-11-20T06:13:49;27.60;;;13.50;;
17763;SDS011;22245;52.832;13.816;2022-11-20T06:17:11;28.97;;;13.73;;
17763;SDS011;22245;52.832;13.816;2022-11-20T06:20:35;26.23;;;13.33;;
17763;SDS011;22245;52.832;13.816;2022-11-20T06:24:01;23.83;;;12.13;;
17763;SDS011;22245;52.832;13.816;2022-11-20T06:27:23;26.13;;;13.43;;
17763;SDS011;22245;52.832;13.816;2022-11-20T06:30:45;26.73;;;12.43;;
17763;SDS011;22245;52.832;13.816;2022-11-20T06:34:07;25.30;;;13.23;;
17763;SDS011;22245;52.832;13.816;2022-11-20T06:37:30;24.33;;;13.00;;
17763;SDS011;22245;52.832;13.816;2022-11-20T06:40:52;24.40;;;12.67;;
17763;SDS011;22245;52.832;13.816;2022-11-20T06:44:15;21.77;;;11.77;;
17763;SDS011;22245;52.832;13.816;2022-11-20T06:47:37;22.47;;;12.10;;
17763;SDS011;22245;52.832;13.816;2022-11-20T06:50:59;21.33;;;12.23;;
17763;SDS011;22245;52.832;13.816;2022-11-20T06:54:22;21.43;;;12.27;;
17763;SDS011;22245;52.832;13.816;2022-11-20T06:57:43;25.10;;;12.60;;
17763;SDS011;22245;52.832;13.816;2022-11-20T07:01:10;21.23;;;11.60;;
17763;SDS011;22245;52.832;13.816;2022-11-20T07:04:33;22.67;;;11.87;;
17763;SDS011;22245;52.832;13.816;2022-11-20T07:07:55;20.57;;;11.53;;
17763;SDS011;22245;52.832;13.816;2022-11-20T07:11:18;21.67;;;11.90;;
17763;SDS011;22245;52.832;13.816;2022-11-20T07:14:40;20.23;;;11.30;;
17763;SDS011;22245;52.832;13.816;2022-11-20T07:18:02;24.67;;;12.73;;
17763;SDS011;22245;52.832;13.816;2022-11-20T07:21:24;23.73;;;12.47;;
17763;SDS011;22245;52.832;13.816;2022-11-20T07:24:46;24.03;;;11.73;;
17763;SDS011;22245;52.832;13.816;2022-11-20T07:28:10;23.03;;;12.63;;
17763;SDS011;22245;52.832;13.816;2022-11-20T07:31:31;24.63;;;12.43;;
17763;SDS011;22245;52.832;13.816;2022-11-20T07:34:53;23.97;;;12.03;;
17763;SDS011;22245;52.832;13.816;2022-11-20T07:38:15;23.30;;;12.07;;
17763;SDS011;22245;52.832;13.816;2022-11-20T07:41:37;24.00;;;12.70;;
17763;SDS011;22245;52.832;13.816;2022-11-20T07:45:00;23.00;;;12.73;;
17763;SDS011;22245;52.832;13.816;2022-11-20T07:48:22;27.57;;;13.47;;
17763;SDS011;22245;52.832;13.816;2022-11-20T07:51:44;31.07;;;16.03;;
17763;SDS011;22245;52.832;13.816;2022-11-20T07:55:11;27.93;;;13.93;;
17763;SDS011;22245;52.832;13.816;2022-11-20T07:58:33;24.37;;;12.60;;
17763;SDS011;22245;52.832;13.816;2022-11-20T08:01:56;22.97;;;12.17;;
17763;SDS011;22245;52.832;13.816;2022-11-20T08:05:18;25.23;;;12.03;;
17763;SDS011;22245;52.832;13.816;2022-11-20T08:08:40;23.10;;;11.57;;
17763;SDS011;22245;52.832;13.816;2022-11-20T08:12:02;19.53;;;11.20;;
17763;SDS011;22245;52.832;13.816;2022-11-20T08:15:41;25.20;;;12.67;;
17763;SDS011;22245;52.832;13.816;2022-11-20T08:19:10;21.47;;;11.50;;
17763;SDS011;22245;52.832;13.816;2022-11-20T08:22:32;21.00;;;11.40;;
17763;SDS011;22245;52.832;13.816;2022-11-20T08:25:53;21.77;;;11.67;;
17763;SDS011;22245;52.832;13.816;2022-11-20T08:29:15;24.47;;;12.57;;
17763;SDS011;22245;52.832;13.816;2022-11-20T08:32:37;22.37;;;11.77;;
17763;SDS011;22245;52.832;13.816;2022-11-20T08:36:01;24.00;;;11.97;;
17763;SDS011;22245;52.832;13.816;2022-11-20T08:39:24;23.23;;;12.77;;
17763;SDS011;22245;52.832;13.816;2022-11-20T08:42:46;22.53;;;11.87;;
17763;SDS011;22245;52.832;13.816;2022-11-20T08:46:08;21.63;;;12.33;;
17763;SDS011;22245;52.832;13.816;2022-11-20T08:49:30;20.77;;;11.90;;
17763;SDS011;22245;52.832;13.816;2022-11-20T08:52:53;23.93;;;11.53;;
17763;SDS011;22245;52.832;13.816;2022-11-20T08:56:15;22.30;;;11.67;;
17763;SDS011;22245;52.832;13.816;2022-11-20T08:59:37;22.47;;;11.30;;
17763;SDS011;22245;52.832;13.816;2022-11-20T09:03:19;22.67;;;11.77;;
17763;SDS011;22245;52.832;13.816;2022-11-20T09:06:41;22.77;;;12.40;;
17763;SDS011;22245;52.832;13.816;2022-11-20T09:10:05;21.53;;;10.67;;
17763;SDS011;22245;52.832;13.816;2022-11-20T09:13:43;23.60;;;12.23;;
17763;SDS011;22245;52.832;13.816;2022-11-20T09:17:05;20.43;;;11.80;;
17763;SDS011;22245;52.832;13.816;2022-11-20T09:20:28;21.20;;;11.73;;
17763;SDS011;22245;52.832;13.816;2022-11-20T09:23:51;26.40;;;12.67;;
17763;SDS011;22245;52.832;13.816;2022-11-20T09:27:14;26.77;;;14.20;;
17763;SDS011;22245;52.832;13.816;2022-11-20T09:30:40;24.27;;;12.27;;
17763;SDS011;22245;52.832;13.816;2022-11-20T09:34:02;18.47;;;10.90;;
17763;SDS011;22245;52.832;13.816;2022-11-20T09:37:24;20.63;;;11.57;;
17763;SDS011;22245;52.832;13.816;2022-11-20T09:40:47;21.67;;;11.27;;
17763;SDS011;22245;52.832;13.816;2022-11-20T09:44:23;19.27;;;11.00;;
17763;SDS011;22245;52.832;13.816;2022-11-20T09:48:05;21.83;;;11.67;;
17763;SDS011;22245;52.832;13.816;2022-11-20T09:51:49;22.00;;;11.97;;
17763;SDS011;22245;52.832;13.816;2022-11-20T09:55:19;23.90;;;12.80;;
17763;SDS011;22245;52.832;13.816;2022-11-20T09:58:42;23.30;;;12.33;;
17763;SDS011;22245;52.832;13.816;2022-11-20T10:02:14;25.33;;;12.67;;
17763;SDS011;22245;52.832;13.816;2022-11-20T10:05:41;24.80;;;12.63;;
17763;SDS011;22245;52.832;13.816;2022-11-20T10:09:14;23.27;;;12.73;;
17763;SDS011;22245;52.832;13.816;2022-11-20T10:12:48;21.43;;;11.80;;
17763;SDS011;22245;52.832;13.816;2022-11-20T10:16:22;25.70;;;12.73;;
17763;SDS011;22245;52.832;13.816;2022-11-20T10:20:10;22.90;;;12.87;;
17763;SDS011;22245;52.832;13.816;2022-11-20T10:23:45;20.33;;;11.23;;
17763;SDS011;22245;52.832;13.816;2022-11-20T10:31:11;21.67;;;12.13;;
17763;SDS011;22245;52.832;13.816;2022-11-20T10:34:40;22.40;;;12.13;;
17763;SDS011;22245;52.832;13.816;2022-11-20T10:38:12;21.67;;;11.80;;
17763;SDS011;22245;52.832;13.816;2022-11-20T10:41:40;20.03;;;11.30;;
17763;SDS011;22245;52.832;13.816;2022-11-20T10:45:09;23.10;;;11.30;;
17763;SDS011;22245;52.832;13.816;2022-11-20T10:48:40;22.63;;;12.43;;
17763;SDS011;22245;52.832;13.816;2022-11-20T10:52:05;21.60;;;12.13;;
17763;SDS011;22245;52.832;13.816;2022-11-20T10:55:38;21.00;;;11.83;;
17763;SDS011;22245;52.832;13.816;2022-11-20T11:02:56;21.30;;;11.57;;
17763;SDS011;22245;52.832;13.816;2022-11-20T11:06:25;20.07;;;11.57;;
17763;SDS011;22245;52.832;13.816;2022-11-20T11:09:54;20.50;;;11.80;;
17763;SDS011;22245;52.832;13.816;2022-11-20T11:13:22;19.70;;;10.97;;
17763;SDS011;22245;52.832;13.816;2022-11-20T11:16:50;20.80;;;11.40;;
17763;SDS011;22245;52.832;13.816;2022-11-20T11:20:15;23.13;;;12.10;;
17763;SDS011;22245;52.832;13.816;2022-11-20T11:23:39;23.97;;;11.13;;
17763;SDS011;22245;52.832;13.816;2022-11-20T11:27:02;19.83;;;11.03;;
17763;SDS011;22245;52.832;13.816;2022-11-20T11:30:42;19.97;;;10.67;;
17763;SDS011;22245;52.832;13.816;2022-11-20T11:34:05;22.93;;;11.40;;
17763;SDS011;22245;52.832;13.816;2022-11-20T11:37:31;19.00;;;10.90;;
17763;SDS011;22245;52.832;13.816;2022-11-20T11:40:56;20.50;;;11.27;;
17763;SDS011;22245;52.832;13.816;2022-11-20T11:44:19;20.30;;;10.33;;
17763;SDS011;22245;52.832;13.816;2022-11-20T11:48:03;18.67;;;10.60;;
17763;SDS011;22245;52.832;13.816;2022-11-20T11:51:33;17.53;;;10.13;;
17763;SDS011;22245;52.832;13.816;2022-11-20T11:55:00;16.97;;;9.63;;
17763;SDS011;22245;52.832;13.816;2022-11-20T11:58:34;16.50;;;10.27;;
17763;SDS011;22245;52.832;13.816;2022-11-20T12:02:03;19.90;;;10.87;;
17763;SDS011;22245;52.832;13.816;2022-11-20T12:05:38;16.93;;;9.50;;
17763;SDS011;22245;52.832;13.816;2022-11-20T12:09:04;18.87;;;9.60;;
17763;SDS011;22245;52.832;13.816;2022-11-20T12:12:30;17.90;;;9.97;;
17763;SDS011;22245;52.832;13.816;2022-11-20T12:15:56;19.40;;;9.93;;
17763;SDS011;22245;52.832;13.816;2022-11-20T12:19:18;18.60;;;9.37;;
17763;SDS011;22245;52.832;13.816;2022-11-20T12:22:43;14.97;;;9.07;;
17763;SDS011;22245;52.832;13.816;2022-11-20T12:26:18;15.73;;;9.17;;
17763;SDS011;22245;52.832;13.816;2022-11-20T12:29:51;16.50;;;8.83;;
17763;SDS011;22245;52.832;13.816;2022-11-20T12:33:40;16.93;;;9.67;;
17763;SDS011;22245;52.832;13.816;2022-11-20T12:37:19;16.27;;;8.37;;
17763;SDS011;22245;52.832;13.816;2022-11-20T12:40:53;15.10;;;9.10;;
17763;SDS011;22245;52.832;13.816;2022-11-20T12:44:25;14.67;;;8.07;;
17763;SDS011;22245;52.832;13.816;2022-11-20T12:48:32;15.83;;;8.67;;
17763;SDS011;22245;52.832;13.816;2022-11-20T12:52:13;15.07;;;8.63;;
17763;SDS011;22245;52.832;13.816;2022-11-20T12:55:46;17.17;;;9.03;;
17763;SDS011;22245;52.832;13.816;2022-11-20T12:59:23;14.63;;;8.13;;
17763;SDS011;22245;52.832;13.816;2022-11-20T13:06:54;16.03;;;8.20;;
17763;SDS011;22245;52.832;13.816;2022-11-20T13:10:18;19.07;;;9.70;;
17763;SDS011;22245;52.832;13.816;2022-11-20T13:13:50;15.63;;;9.00;;
17763;SDS011;22245;52.832;13.816;2022-11-20T13:17:36;14.90;;;8.53;;
17763;SDS011;22245;52.832;13.816;2022-11-20T13:21:12;15.07;;;8.20;;
17763;SDS011;22245;52.832;13.816;2022-11-20T13:24:35;15.47;;;8.93;;
17763;SDS011;22245;52.832;13.816;2022-11-20T13:27:58;13.73;;;8.13;;
17763;SDS011;22245;52.832;13.816;2022-11-20T13:31:31;16.30;;;8.47;;
17763;SDS011;22245;52.832;13.816;2022-11-20T13:34:56;15.93;;;8.60;;
17763;SDS011;22245;52.832;13.816;2022-11-20T13:38:19;17.60;;;9.17;;
17763;SDS011;22245;52.832;13.816;2022-11-20T13:41:41;15.63;;;8.70;;
17763;SDS011;22245;52.832;13.816;2022-11-20T13:45:08;18.17;;;9.00;;
17763;SDS011;22245;52.832;13.816;2022-11-20T13:48:33;17.03;;;8.70;;
17763;SDS011;22245;52.832;13.816;2022-11-20T13:52:06;16.07;;;8.80;;
17763;SDS011;22245;52.832;13.816;2022-11-20T13:55:49;14.97;;;8.80;;
17763;SDS011;22245;52.832;13.816;2022-11-20T13:59:23;15.30;;;8.50;;
17763;SDS011;22245;52.832;13.816;2022-11-20T14:03:09;18.10;;;9.77;;
17763;SDS011;22245;52.832;13.816;2022-11-20T14:06:59;17.47;;;9.13;;
17763;SDS011;22245;52.832;13.816;2022-11-20T14:10:23;19.77;;;11.30;;
17763;SDS011;22245;52.832;13.816;2022-11-20T14:13:52;18.00;;;9.73;;
17763;SDS011;22245;52.832;13.816;2022-11-20T14:17:18;15.83;;;8.60;;
17763;SDS011;22245;52.832;13.816;2022-11-20T14:20:45;20.33;;;10.00;;
17763;SDS011;22245;52.832;13.816;2022-11-20T14:24:09;17.17;;;9.13;;
17763;SDS011;22245;52.832;13.816;2022-11-20T14:27:35;17.40;;;9.43;;
17763;SDS011;22245;52.832;13.816;2022-11-20T14:30:58;18.27;;;9.87;;
17763;SDS011;22245;52.832;13.816;2022-11-20T14:34:21;17.07;;;9.60;;
17763;SDS011;22245;52.832;13.816;2022-11-20T14:37:47;16.47;;;9.37;;
17763;SDS011;22245;52.832;13.816;2022-11-20T14:41:15;17.63;;;9.50;;
17763;SDS011;22245;52.832;13.816;2022-11-20T14:44:40;15.17;;;8.57;;
17763;SDS011;22245;52.832;13.816;2022-11-20T14:48:03;19.77;;;10.70;;
17763;SDS011;22245;52.832;13.816;2022-11-20T14:51:27;18.33;;;10.20;;
17763;SDS011;22245;52.832;13.816;2022-11-20T14:54:52;20.03;;;10.20;;
17763;SDS011;22245;52.832;13.816;2022-11-20T14:58:20;16.60;;;9.30;;
17763;SDS011;22245;52.832;13.816;2022-11-20T15:01:45;19.30;;;9.13;;
17763;SDS011;22245;52.832;13.816;2022-11-20T15:05:17;18.30;;;8.90;;
17763;SDS011;22245;52.832;13.816;2022-11-20T15:08:50;17.33;;;9.83;;
17763;SDS011;22245;52.832;13.816;2022-11-20T15:12:15;19.67;;;9.90;;
17763;SDS011;22245;52.832;13.816;2022-11-20T15:15:41;18.33;;;9.83;;
17763;SDS011;22245;52.832;13.816;2022-11-20T15:19:09;17.67;;;9.90;;
17763;SDS011;22245;52.832;13.816;2022-11-20T15:22:41;18.30;;;10.43;;
17763;SDS011;22245;52.832;13.816;2022-11-20T15:26:04;20.13;;;9.90;;
17763;SDS011;22245;52.832;13.816;2022-11-20T15:29:26;19.67;;;9.57;;
17763;SDS011;22245;52.832;13.816;2022-11-20T15:32:48;16.90;;;10.07;;
17763;SDS011;22245;52.832;13.816;2022-11-20T15:36:11;17.43;;;10.30;;
17763;SDS011;22245;52.832;13.816;2022-11-20T15:39:34;18.03;;;9.30;;
17763;SDS011;22245;52.832;13.816;2022-11-20T15:42:55;18.27;;;9.83;;
17763;SDS011;22245;52.832;13.816;2022-11-20T15:46:33;17.27;;;9.83;;
17763;SDS011;22245;52.832;13.816;2022-11-20T15:50:00;16.83;;;9.43;;
17763;SDS011;22245;52.832;13.816;2022-11-20T15:53:23;16.30;;;8.93;;
17763;SDS011;22245;52.832;13.816;2022-11-20T15:56:45;16.43;;;9.77;;
17763;SDS011;22245;52.832;13.816;2022-11-20T16:00:08;19.20;;;9.93;;
17763;SDS011;22245;52.832;13.816;2022-11-20T16:03:31;20.00;;;9.90;;
17763;SDS011;22245;52.832;13.816;2022-11-20T16:06:53;17.43;;;10.00;;
17763;SDS011;22245;52.832;13.816;2022-11-20T16:10:16;18.77;;;9.10;;
17763;SDS011;22245;52.832;13.816;2022-11-20T16:13:38;18.80;;;9.60;;
17763;SDS011;22245;52.832;13.816;2022-11-20T16:17:18;18.33;;;9.37;;
17763;SDS011;22245;52.832;13.816;2022-11-20T16:21:00;18.10;;;9.70;;
17763;SDS011;22245;52.832;13.816;2022-11-20T16:24:23;17.23;;;9.73;;
17763;SDS011;22245;52.832;13.816;2022-11-20T16:27:46;20.03;;;9.97;;
17763;SDS011;22245;52.832;13.816;2022-11-20T16:31:09;20.17;;;10.27;;
17763;SDS011;22245;52.832;13.816;2022-11-20T16:34:31;22.03;;;10.70;;
17763;SDS011;22245;52.832;13.816;2022-11-20T16:37:53;19.97;;;10.77;;
17763;SDS011;22245;52.832;13.816;2022-11-20T16:41:15;18.67;;;10.40;;
17763;SDS011;22245;52.832;13.816;2022-11-20T16:44:39;22.60;;;11.77;;
17763;SDS011;22245;52.832;13.816;2022-11-20T16:48:01;17.20;;;10.10;;
17763;SDS011;22245;52.832;13.816;2022-11-20T16:51:23;22.63;;;11.40;;
17763;SDS011;22245;52.832;13.816;2022-11-20T16:54:45;21.67;;;11.90;;
17763;SDS011;22245;52.832;13.816;2022-11-20T16:58:07;18.97;;;10.60;;
17763;SDS011;22245;52.832;13.816;2022-11-20T17:01:31;21.43;;;11.23;;
17763;SDS011;22245;52.832;13.816;2022-11-20T17:04:55;17.17;;;10.03;;
17763;SDS011;22245;52.832;13.816;2022-11-20T17:08:17;17.63;;;9.90;;
17763;SDS011;22245;52.832;13.816;2022-11-20T17:11:39;17.77;;;9.97;;
17763;SDS011;22245;52.832;13.816;2022-11-20T17:15:01;19.93;;;10.40;;
17763;SDS011;22245;52.832;13.816;2022-11-20T17:18:24;23.03;;;10.60;;
17763;SDS011;22245;52.832;13.816;2022-11-20T17:21:48;21.60;;;11.20;;
17763;SDS011;22245;52.832;13.816;2022-11-20T17:25:10;30.87;;;15.57;;
17763;SDS011;22245;52.832;13.816;2022-11-20T17:28:32;27.50;;;13.50;;
17763;SDS011;22245;52.832;13.816;2022-11-20T17:31:54;20.33;;;11.57;;
17763;SDS011;22245;52.832;13.816;2022-11-20T17:35:17;19.37;;;10.30;;
17763;SDS011;22245;52.832;13.816;2022-11-20T17:38:40;18.73;;;9.97;;
17763;SDS011;22245;52.832;13.816;2022-11-20T17:42:02;21.20;;;10.83;;
17763;SDS011;22245;52.832;13.816;2022-11-20T17:45:42;17.37;;;9.97;;
17763;SDS011;22245;52.832;13.816;2022-11-20T17:49:04;26.93;;;14.77;;
17763;SDS011;22245;52.832;13.816;2022-11-20T17:52:28;20.33;;;12.43;;
17763;SDS011;22245;52.832;13.816;2022-11-20T17:55:53;22.97;;;12.67;;
17763;SDS011;22245;52.832;13.816;2022-11-20T17:59:33;20.87;;;10.67;;
17763;SDS011;22245;52.832;13.816;2022-11-20T18:02:59;20.17;;;11.40;;
17763;SDS011;22245;52.832;13.816;2022-11-20T18:06:22;21.33;;;11.03;;
17763;SDS011;22245;52.832;13.816;2022-11-20T18:09:46;20.27;;;11.30;;
17763;SDS011;22245;52.832;13.816;2022-11-20T18:13:09;21.87;;;11.83;;
17763;SDS011;22245;52.832;13.816;2022-11-20T18:16:32;19.13;;;10.43;;
17763;SDS011;22245;52.832;13.816;2022-11-20T18:19:55;16.53;;;9.57;;
17763;SDS011;22245;52.832;13.816;2022-11-20T18:23:39;16.50;;;9.80;;
17763;SDS011;22245;52.832;13.816;2022-11-20T18:27:02;19.50;;;10.20;;
17763;SDS011;22245;52.832;13.816;2022-11-20T18:30:25;17.37;;;9.73;;
17763;SDS011;22245;52.832;13.816;2022-11-20T18:33:47;17.30;;;9.67;;
17763;SDS011;22245;52.832;13.816;2022-11-20T18:37:08;15.97;;;10.10;;
17763;SDS011;22245;52.832;13.816;2022-11-20T18:40:33;19.77;;;10.83;;
17763;SDS011;22245;52.832;13.816;2022-11-20T18:43:57;17.07;;;9.90;;
17763;SDS011;22245;52.832;13.816;2022-11-20T18:47:37;16.33;;;10.00;;
17763;SDS011;22245;52.832;13.816;2022-11-20T18:51:03;18.50;;;9.77;;
17763;SDS011;22245;52.832;13.816;2022-11-20T18:54:25;17.50;;;9.93;;
17763;SDS011;22245;52.832;13.816;2022-11-20T18:57:47;15.77;;;9.20;;
17763;SDS011;22245;52.832;13.816;2022-11-20T19:01:10;17.10;;;9.27;;
17763;SDS011;22245;52.832;13.816;2022-11-20T19:04:32;14.67;;;9.43;;
17763;SDS011;22245;52.832;13.816;2022-11-20T19:07:54;16.13;;;9.23;;
17763;SDS011;22245;52.832;13.816;2022-11-20T19:11:16;17.47;;;9.50;;
17763;SDS011;22245;52.832;13.816;2022-11-20T19:14:39;15.83;;;8.77;;
17763;SDS011;22245;52.832;13.816;2022-11-20T19:18:02;15.37;;;8.63;;
17763;SDS011;22245;52.832;13.816;2022-11-20T19:21:25;15.90;;;9.60;;
17763;SDS011;22245;52.832;13.816;2022-11-20T19:24:47;14.57;;;8.93;;
17763;SDS011;22245;52.832;13.816;2022-11-20T19:28:09;16.87;;;9.60;;
17763;SDS011;22245;52.832;13.816;2022-11-20T19:31:31;19.83;;;9.87;;
17763;SDS011;22245;52.832;13.816;2022-11-20T19:34:55;17.03;;;9.83;;
17763;SDS011;22245;52.832;13.816;2022-11-20T19:38:16;17.07;;;10.07;;
17763;SDS011;22245;52.832;13.816;2022-11-20T19:41:39;17.07;;;9.50;;
17763;SDS011;22245;52.832;13.816;2022-11-20T19:45:01;14.80;;;8.73;;
17763;SDS011;22245;52.832;13.816;2022-11-20T19:48:23;16.67;;;9.83;;
17763;SDS011;22245;52.832;13.816;2022-11-20T19:51:47;17.57;;;8.80;;
17763;SDS011;22245;52.832;13.816;2022-11-20T19:55:10;17.37;;;9.30;;
17763;SDS011;22245;52.832;13.816;2022-11-20T19:58:31;15.10;;;8.83;;
17763;SDS011;22245;52.832;13.816;2022-11-20T20:01:53;16.93;;;9.27;;
17763;SDS011;22245;52.832;13.816;2022-11-20T20:05:15;16.90;;;9.43;;
17763;SDS011;22245;52.832;13.816;2022-11-20T20:08:39;15.27;;;8.83;;
17763;SDS011;22245;52.832;13.816;2022-11-20T20:12:01;15.17;;;8.90;;
17763;SDS011;22245;52.832;13.816;2022-11-20T20:15:22;15.43;;;9.13;;
17763;SDS011;22245;52.832;13.816;2022-11-20T20:18:45;16.57;;;9.53;;